Terminal Aerodrome Forecast
Issued by NWS

Home | Current Version | Previous Version | Text Only | Print | Product List | Glossary On
Versions: 1 2 3 4 5 6 7 8 9 10 11 12 13 14
000
FTAK31 PAJN 262300
TAFAWG
TAF
PAWG 262335Z 2700/2724 33006KT P6SM FEW010 SCT025 BKN150
     FM270300 VRB04KT P6SM VCFG FEW010 BKN150
     FM271500 10006KT P6SM SCT100
     FM271900 VRB06KT P6SM BKN100
      AMD LTD TO CLD VIS AND WIND 2706/2715=

USA.gov is the U.S. government's official web portal to all federal, state and local government web resources and services.